ADDS METAR Data INFO
IDs: Format: Raw Decoded Include TAF

Data at: 1114 UTC 21 Feb 2018

KF00 201455Z AUTO 15016KT 10SM OVC090 19/17 A2993 RMK AO2 LTG DSNT W AND NW T01880174 60007
KF00 201435Z AUTO 14012KT 10SM SCT044 OVC090 19/17 A2993 RMK AO2 LTG DSNT NW T01850172
KF00 201415Z AUTO 15015G18KT 10SM SCT020 BKN046 OVC090 19/17 A2993 RMK AO2 T01870171
KF00 201355Z AUTO 16012KT 10SM -RA BKN050 BKN070 OVC090 18/17 A2993 RMK AO2 LTG DSNT W P0005 T01800167
KF00 201335Z AUTO 18016G24KT 10SM -RA SCT050 BKN070 OVC090 18/16 A2993 RMK AO2 LTG DSNT SE AND W P0003 T01780164
KF00 201315Z AUTO 17024G31KT 10SM -RA BKN070 BKN090 OVC110 18/17 A2992 RMK AO2 LTG DSNT E P0001 T01800165
KF00 201255Z AUTO 18018G24KT 10SM BKN100 BKN120 18/17 A2992 RMK AO2 LTG DSNT S AND SW P0002 T01840168
KF00 201235Z AUTO 18022G27KT 10SM -RA BKN110 18/17 A2992 RMK AO2 LTG DSNT NE THRU S P0002 T01840168
KF00 201215Z AUTO 18019G27KT 10SM -RA SCT080 BKN110 18/17 A2990 RMK AO2 LTG DSNT NE THRU S P0002 T01840168
KF00 201155Z AUTO 16017G27KT 5SM VCTSRA BR SCT022 BKN048 OVC110 19/17 A2988 RMK AO2 LTG DSNT N THRU S P0009 T01860172 10209 20186 60009 70009
KF00 201135Z AUTO 18018G28KT 5SM +TSRA BR SCT018 BKN025 OVC041 19/17 A2991 RMK AO2 LTG DSNT ALQDS P0004 T01930173
KF00 201115Z AUTO 18019G27KT 10SM -RA SCT021 BKN032 BKN048 20/17 A2989 RMK AO2 LTG DSNT N S AND SW T01980171
KF00 201055Z AUTO 18021G29KT 10SM BKN023 BKN030 BKN120 20/17 A2988 RMK AO2 LTG DSNT SW AND W T02030170
KF00 201035Z AUTO 18018G30KT 10SM BKN023 21/17 A2987 RMK AO2 LTG DSNT SW AND W T02050171
KF00 201015Z AUTO 18022G29KT 10SM OVC021 21/17 A2986 RMK AO2 T02050172
KF00 200955Z AUTO 17018G26KT 10SM BKN021 OVC025 21/17 A2986 RMK AO2 LTG DSNT SW T02050173
KF00 200935Z AUTO 18016G24KT 10SM OVC021 21/17 A2986 RMK AO2 T02060175
KF00 200915Z AUTO 17017G24KT 10SM OVC021 21/18 A2986 RMK AO2 T02070175
KF00 200855Z AUTO 18017G24KT 10SM OVC021 21/18 A2985 RMK AO2 T02070175
KF00 200835Z AUTO 18018G25KT 10SM OVC021 21/18 A2985 RMK AO2 T02090176
KF00 200815Z AUTO 18017G25KT 10SM OVC021 21/18 A2985 RMK AO2 T02090176
KF00 200755Z AUTO 17018G25KT 10SM OVC021 21/18 A2986 RMK AO2 T02080176
KF00 200735Z AUTO 17015G23KT 10SM OVC021 21/18 A2986 RMK AO2 T02060175
KF00 200715Z AUTO 17016G20KT 10SM OVC021 20/17 A2985 RMK AO2 T02030174
KF00 200655Z AUTO 17015G24KT 10SM OVC021 20/17 A2985 RMK AO2 T02010172
KF00 200635Z AUTO 16013G19KT 10SM OVC023 20/17 A2985 RMK AO2 T01990169
KF00 200615Z AUTO 17014KT 10SM OVC025 20/16 A2985 RMK AO2 T01980165
KF00 200555Z AUTO 16012G19KT 10SM OVC027 20/16 A2986 RMK AO2 T01970162 10223 20196 402240162
KF00 200535Z AUTO 17013G20KT 10SM OVC027 20/16 A2986 RMK AO2 T01980160
KF00 200515Z AUTO 17011G19KT 10SM OVC029 20/16 A2986 RMK AO2 T01980159
KF00 200455Z AUTO 17014G21KT 10SM BKN029 BKN110 20/16 A2985 RMK AO2 T01980159
KF00 200435Z AUTO 17015G22KT 10SM SCT120 20/16 A2983 RMK AO2 T01980159
KF00 200415Z AUTO 16013G17KT 10SM CLR 20/16 A2983 RMK AO2 T01990161
KF00 200355Z AUTO 16016G20KT 10SM BKN044 BKN050 20/16 A2983 RMK AO2 T01980162
KF00 200335Z AUTO 17014G20KT 10SM -RA OVC042 20/16 A2984 RMK AO2 LTG DSNT N T02030163
KF00 200315Z AUTO 17015G21KT 10SM OVC042 21/16 A2984 RMK AO2 T02100161
KF00 200255Z AUTO 16015G25KT 10SM BKN044 BKN050 BKN080 21/16 A2983 RMK AO2 T02100161
KF00 200235Z AUTO 16014G20KT 10SM -RA SCT046 BKN050 BKN080 21/16 A2983 RMK AO2 T02080161
KF00 200215Z AUTO 15011KT 10SM BKN044 BKN050 21/16 A2982 RMK AO2 LTG DSNT NE T02140160
KF00 200155Z AUTO 17016KT 10SM BKN042 OVC050 22/16 A2983 RMK AO2 LTG DSNT NE T02160161
KF00 200135Z AUTO 16013G21KT 10SM BKN038 BKN049 OVC060 21/16 A2982 RMK AO2 T02150161
KF00 200115Z AUTO 17012G17KT 10SM BKN041 BKN049 OVC065 21/16 A2982 RMK AO2 T02110164
KF00 200055Z AUTO 16010KT 10SM SCT043 BKN070 21/16 A2982 RMK AO2 T02100162
KF00 200035Z AUTO 15012G18KT 10SM SCT043 SCT049 SCT065 21/16 A2981 RMK AO2 LTG DSNT N THRU E T02140160
KF00 200015Z AUTO 15012G16KT 10SM SCT043 OVC049 22/16 A2981 RMK AO2 T02200158
KF00 192355Z AUTO 16012G17KT 10SM VCTS BKN048 OVC055 22/16 A2981 RMK AO2 LTG DSNT S T02230157 10224 20211
KF00 192335Z AUTO 16013G17KT 10SM SCT046 BKN050 OVC070 22/16 A2981 RMK AO2 LTG DSNT SW
KF00 192315Z AUTO 16010KT 10SM SCT044 BKN050 OVC070 22/16 A2981 RMK AO2 LTG DSNT NE T02200160